createdAt,value
2023-01-18T00:01:11.543Z,0.18
2023-01-18T00:03:42.588Z,0.23
2023-01-18T00:06:12.734Z,0.23
2023-01-18T00:08:43.001Z,0.23
2023-01-18T00:11:13.041Z,0.27
2023-01-18T00:13:44.154Z,0.32
2023-01-18T00:16:15.521Z,0.34
2023-01-18T00:18:44.463Z,0.33
2023-01-18T00:21:13.830Z,0.35
2023-01-18T00:23:42.535Z,0.36
2023-01-18T00:26:12.892Z,0.32
2023-01-18T00:28:43.994Z,0.29
2023-01-18T00:31:14.209Z,0.29
2023-01-18T00:33:44.387Z,0.27
2023-01-18T00:36:13.517Z,0.24
2023-01-18T00:38:42.280Z,0.20
2023-01-18T00:41:10.998Z,0.19
2023-01-18T00:43:43.041Z,0.19
2023-01-18T00:46:13.695Z,0.18
2023-01-18T00:48:45.642Z,0.16
2023-01-18T00:51:16.438Z,0.17
2023-01-18T00:53:47.714Z,0.19
2023-01-18T00:56:18.184Z,0.22
2023-01-18T00:58:48.631Z,0.19
2023-01-18T01:01:17.599Z,0.21
2023-01-18T01:04:03.250Z,0.21
2023-01-18T01:06:47.592Z,0.17
2023-01-18T01:09:19.238Z,0.18
2023-01-18T01:12:02.169Z,0.16
2023-01-18T01:14:50.186Z,0.15
2023-01-18T01:17:36.082Z,0.14
2023-01-18T01:20:23.330Z,0.07
2023-01-18T01:23:09.258Z,0.05
2023-01-18T01:25:57.009Z,0.05
2023-01-18T01:28:26.170Z,0.08
2023-01-18T01:31:00.720Z,0.06
2023-01-18T01:33:29.717Z,0.06
2023-01-18T01:35:59.460Z,0.06
2023-01-18T01:38:30.179Z,0.04
2023-01-18T01:41:01.556Z,0.05
2023-01-18T01:43:42.038Z,0.03
2023-01-18T01:46:21.051Z,0.02
2023-01-18T01:48:50.874Z,0.04
2023-01-18T01:51:21.412Z,0.06
2023-01-18T01:53:52.743Z,0.08
2023-01-18T01:56:23.062Z,0.15
2023-01-18T01:58:55.802Z,0.13
2023-01-18T02:01:26.716Z,0.13
2023-01-18T02:03:57.450Z,0.13
2023-01-18T02:06:34.145Z,0.13
2023-01-18T02:09:04.930Z,0.09
2023-01-18T02:11:33.442Z,0.07
2023-01-18T02:14:05.561Z,0.03
2023-01-18T02:16:53.582Z,0.06
2023-01-18T02:19:52.150Z,0.05
2023-01-18T02:22:38.761Z,0.06
2023-01-18T02:25:33.618Z,0.05
2023-01-18T02:28:11.807Z,0.05
2023-01-18T02:30:44.961Z,0.04
2023-01-18T02:33:20.994Z,0.04
2023-01-18T02:35:52.733Z,0.01
2023-01-18T02:38:25.542Z,0.00
2023-01-18T02:41:15.791Z,-0.03
2023-01-18T02:44:06.857Z,-0.06
2023-01-18T02:46:35.939Z,-0.10
2023-01-18T02:49:09.749Z,-0.11
2023-01-18T02:51:39.477Z,-0.15
2023-01-18T02:54:10.903Z,-0.19
2023-01-18T02:56:42.780Z,-0.19
2023-01-18T02:59:16.944Z,-0.24
2023-01-18T03:01:49.821Z,-0.24
2023-01-18T03:04:23.939Z,-0.26
2023-01-18T03:06:58.855Z,-0.28
2023-01-18T03:09:29.672Z,-0.29
2023-01-18T03:12:04.007Z,-0.31
2023-01-18T03:14:47.508Z,-0.30
2023-01-18T03:17:22.786Z,-0.30
2023-01-18T03:20:08.894Z,-0.31
2023-01-18T03:22:58.482Z,-0.27
2023-01-18T03:25:30.903Z,-0.30
2023-01-18T03:28:22.684Z,-0.29
2023-01-18T03:31:11.007Z,-0.23
2023-01-18T03:33:49.263Z,-0.24
2023-01-18T03:36:26.892Z,-0.23
2023-01-18T03:38:58.294Z,-0.20
2023-01-18T03:41:30.913Z,-0.20
2023-01-18T03:44:05.045Z,-0.23
2023-01-18T03:46:36.075Z,-0.28
2023-01-18T03:49:06.219Z,-0.32
2023-01-18T03:51:49.077Z,-0.34
2023-01-18T03:54:25.694Z,-0.37
2023-01-18T03:56:59.023Z,-0.41
2023-01-18T03:59:35.711Z,-0.38
2023-01-18T04:02:07.392Z,-0.39
2023-01-18T04:04:36.253Z,-0.39
2023-01-18T04:07:05.858Z,-0.38
2023-01-18T04:09:34.950Z,-0.38
2023-01-18T04:12:03.503Z,-0.40
2023-01-18T04:14:32.394Z,-0.41
2023-01-18T04:17:02.051Z,-0.44
2023-01-18T04:19:33.280Z,-0.39
2023-01-18T04:22:02.069Z,-0.38
2023-01-18T04:24:30.597Z,-0.40
2023-01-18T04:26:59.711Z,-0.39
2023-01-18T04:29:28.341Z,-0.35
2023-01-18T04:31:56.734Z,-0.38
2023-01-18T04:34:26.486Z,-0.37
2023-01-18T04:36:56.483Z,-0.27
2023-01-18T04:39:25.197Z,-0.26
2023-01-18T04:41:54.378Z,-0.27
2023-01-18T04:44:25.361Z,-0.24
2023-01-18T04:46:54.872Z,-0.23
2023-01-18T04:49:24.395Z,-0.27
2023-01-18T04:51:52.894Z,-0.28
2023-01-18T04:54:23.026Z,-0.32
2023-01-18T04:56:52.082Z,-0.28
2023-01-18T04:59:20.859Z,-0.27
2023-01-18T05:01:49.384Z,-0.31
2023-01-18T05:04:19.347Z,-0.35
2023-01-18T05:06:50.425Z,-0.39
2023-01-18T05:09:26.471Z,-0.41
2023-01-18T05:11:56.303Z,-0.41
2023-01-18T05:14:25.910Z,-0.41
2023-01-18T05:16:55.462Z,-0.39
2023-01-18T05:19:24.079Z,-0.37
2023-01-18T05:21:52.603Z,-0.33
2023-01-18T05:24:22.601Z,-0.32
2023-01-18T05:26:51.209Z,-0.31
2023-01-18T05:29:20.803Z,-0.30
2023-01-18T05:31:49.638Z,-0.24
2023-01-18T05:34:18.528Z,-0.22
2023-01-18T05:36:48.119Z,-0.21
2023-01-18T05:39:17.252Z,-0.15
2023-01-18T05:41:47.311Z,-0.07
2023-01-18T05:44:15.760Z,-0.06
2023-01-18T05:46:44.495Z,-0.03
2023-01-18T05:49:13.063Z,0.00
2023-01-18T05:51:41.807Z,0.02
2023-01-18T05:54:10.213Z,0.02
2023-01-18T05:56:41.063Z,-0.01
2023-01-18T05:59:11.134Z,-0.01
2023-01-18T06:01:39.597Z,-0.04
2023-01-18T06:04:09.306Z,-0.08
2023-01-18T06:06:56.261Z,-0.13
2023-01-18T06:09:25.034Z,-0.15
2023-01-18T06:11:53.843Z,-0.19
2023-01-18T06:14:24.209Z,-0.21
2023-01-18T06:16:52.808Z,-0.19
2023-01-18T06:19:21.361Z,-0.19
2023-01-18T06:21:50.221Z,-0.19
2023-01-18T06:24:19.258Z,-0.21
2023-01-18T06:26:47.880Z,-0.24
2023-01-18T06:29:16.577Z,-0.23
2023-01-18T06:31:47.711Z,-0.27
2023-01-18T06:34:16.533Z,-0.27
2023-01-18T06:36:45.420Z,-0.27
2023-01-18T06:39:14.105Z,-0.28
2023-01-18T06:41:42.618Z,-0.30
2023-01-18T06:44:11.533Z,-0.30
2023-01-18T06:46:39.967Z,-0.34
2023-01-18T06:49:10.086Z,-0.28
2023-01-18T06:51:38.637Z,-0.27
2023-01-18T06:54:08.817Z,-0.18
2023-01-18T06:56:37.390Z,-0.18
2023-01-18T06:59:08.302Z,-0.23
2023-01-18T07:01:39.171Z,-0.24
2023-01-18T07:04:07.703Z,-0.26
2023-01-18T07:06:38.019Z,-0.20
2023-01-18T07:09:08.446Z,-0.19
2023-01-18T07:11:48.153Z,-0.13
2023-01-18T07:14:18.123Z,-0.14
2023-01-18T07:16:50.176Z,-0.15
2023-01-18T07:19:21.300Z,-0.14
2023-01-18T07:21:54.014Z,-0.14
2023-01-18T07:24:26.081Z,-0.13
2023-01-18T07:27:01.654Z,-0.12
2023-01-18T07:29:30.277Z,-0.02
2023-01-18T07:31:59.013Z,0.01
2023-01-18T07:34:28.675Z,0.02
2023-01-18T07:36:59.727Z,0.06
2023-01-18T07:39:30.359Z,0.12
2023-01-18T07:41:59.651Z,0.14
2023-01-18T07:44:32.967Z,0.15
2023-01-18T07:47:02.687Z,0.18
2023-01-18T07:49:32.791Z,0.21
2023-01-18T07:52:05.306Z,0.27
2023-01-18T07:54:34.744Z,0.30
2023-01-18T07:57:04.505Z,0.39
2023-01-18T07:59:33.787Z,0.42
2023-01-18T08:02:03.544Z,0.42
2023-01-18T08:04:32.176Z,0.35
2023-01-18T08:07:00.967Z,0.34
2023-01-18T08:09:34.190Z,0.44
2023-01-18T08:12:02.993Z,0.45
2023-01-18T08:14:31.777Z,0.46
2023-01-18T08:17:00.317Z,0.49
2023-01-18T08:19:29.107Z,0.45
2023-01-18T08:21:57.982Z,0.44
2023-01-18T08:24:26.484Z,0.46
2023-01-18T08:26:58.006Z,0.43
2023-01-18T08:29:26.812Z,0.43
2023-01-18T08:31:55.494Z,0.43
2023-01-18T08:34:24.289Z,0.47
2023-01-18T08:36:52.833Z,0.48
2023-01-18T08:39:21.468Z,0.52
2023-01-18T08:41:50.067Z,0.59
2023-01-18T08:44:20.765Z,0.61
2023-01-18T08:46:50.142Z,0.65
2023-01-18T08:49:18.612Z,0.69
2023-01-18T08:51:47.479Z,0.74
2023-01-18T08:54:16.186Z,0.77
2023-01-18T08:56:44.854Z,0.81
2023-01-18T08:59:13.537Z,0.87
2023-01-18T09:01:43.765Z,0.94
2023-01-18T09:04:12.462Z,1.01
2023-01-18T09:06:41.167Z,1.08
2023-01-18T09:09:12.029Z,1.17
2023-01-18T09:11:40.703Z,1.21
2023-01-18T09:14:09.244Z,1.22
2023-01-18T09:16:37.960Z,1.24
2023-01-18T09:19:08.424Z,1.25
2023-01-18T09:21:37.121Z,1.24
2023-01-18T09:24:06.115Z,1.25
2023-01-18T09:26:34.710Z,1.29
2023-01-18T09:29:03.154Z,1.29
2023-01-18T09:31:31.951Z,1.30
2023-01-18T09:34:18.070Z,1.26
2023-01-18T09:36:52.223Z,1.23
2023-01-18T09:39:24.429Z,1.16
2023-01-18T09:41:56.971Z,1.07
2023-01-18T09:44:31.233Z,1.01
2023-01-18T09:47:03.251Z,0.98
2023-01-18T09:49:39.068Z,0.96
2023-01-18T09:52:23.510Z,0.98
2023-01-18T09:54:57.923Z,0.98
2023-01-18T09:57:44.997Z,0.99
2023-01-18T10:00:22.637Z,1.02
2023-01-18T10:03:01.385Z,1.08
2023-01-18T10:05:34.911Z,1.15
2023-01-18T10:08:13.814Z,1.15
2023-01-18T10:10:50.169Z,1.20
2023-01-18T10:13:40.086Z,1.29
2023-01-18T10:16:15.855Z,1.32
2023-01-18T10:18:49.287Z,1.42
2023-01-18T10:21:24.252Z,1.50
2023-01-18T10:24:17.715Z,1.74
2023-01-18T10:26:50.734Z,1.73
2023-01-18T10:29:28.533Z,1.64
2023-01-18T10:32:02.311Z,1.66
2023-01-18T10:34:33.347Z,1.77
2023-01-18T10:37:15.752Z,1.83
2023-01-18T10:39:52.952Z,1.93
2023-01-18T10:42:24.996Z,2.01
2023-01-18T10:44:53.958Z,2.08
2023-01-18T10:47:23.166Z,2.09
2023-01-18T10:49:52.949Z,1.98
2023-01-18T10:52:27.658Z,2.04
2023-01-18T10:55:02.482Z,2.15
2023-01-18T10:57:36.481Z,2.33
2023-01-18T11:00:12.781Z,2.38
2023-01-18T11:02:47.446Z,2.33
2023-01-18T11:05:29.702Z,2.34
2023-01-18T11:08:25.565Z,2.25
2023-01-18T11:11:03.616Z,2.21
2023-01-18T11:13:36.756Z,2.13
2023-01-18T11:16:14.062Z,2.10
2023-01-18T11:18:58.744Z,2.12
2023-01-18T11:21:31.147Z,2.19
2023-01-18T11:24:08.076Z,2.23
2023-01-18T11:26:55.178Z,2.29
2023-01-18T11:29:28.702Z,2.34
2023-01-18T11:32:05.454Z,2.32
2023-01-18T11:34:37.718Z,2.28
2023-01-18T11:37:34.735Z,2.29
2023-01-18T11:40:28.412Z,2.29
2023-01-18T11:43:04.287Z,2.29
2023-01-18T11:45:37.953Z,2.26
2023-01-18T11:48:13.544Z,2.23
2023-01-18T11:50:45.712Z,2.23
2023-01-18T11:53:28.304Z,2.22
2023-01-18T11:56:06.203Z,2.23
2023-01-18T11:58:37.070Z,2.23
2023-01-18T12:01:25.852Z,2.24
2023-01-18T12:04:00.962Z,2.22
2023-01-18T12:06:44.193Z,2.26
2023-01-18T12:09:37.551Z,2.21
2023-01-18T12:12:34.542Z,2.16
2023-01-18T12:15:27.420Z,2.12
2023-01-18T12:18:13.950Z,2.14
2023-01-18T12:20:53.598Z,2.12
2023-01-18T12:23:56.343Z,2.11
2023-01-18T12:26:39.298Z,2.16
2023-01-18T12:29:25.649Z,2.16
2023-01-18T12:32:07.851Z,2.17
2023-01-18T12:34:43.464Z,2.15
2023-01-18T12:37:31.432Z,2.18
2023-01-18T12:40:32.747Z,2.26
2023-01-18T12:43:15.726Z,2.27
2023-01-18T12:45:51.803Z,2.29
2023-01-18T12:48:26.675Z,2.28
2023-01-18T12:50:56.929Z,2.32
2023-01-18T12:53:38.530Z,2.29
2023-01-18T12:56:15.361Z,2.32
2023-01-18T12:58:55.543Z,2.40
2023-01-18T13:01:29.185Z,2.53
2023-01-18T13:04:03.763Z,2.58
2023-01-18T13:06:35.659Z,2.59
2023-01-18T13:09:08.675Z,2.61
2023-01-18T13:11:41.799Z,2.61
2023-01-18T13:14:22.905Z,2.67
2023-01-18T13:17:02.970Z,2.73
2023-01-18T13:19:45.298Z,2.78
2023-01-18T13:22:24.273Z,2.83
2023-01-18T13:25:10.890Z,2.94
2023-01-18T13:27:39.787Z,2.96
2023-01-18T13:30:19.690Z,3.03
2023-01-18T13:32:50.045Z,3.19
2023-01-18T13:35:24.395Z,3.49
2023-01-18T13:37:56.671Z,3.70
2023-01-18T13:40:33.158Z,3.66
2023-01-18T13:43:01.982Z,3.55
2023-01-18T13:45:32.253Z,3.69
2023-01-18T13:48:05.192Z,3.67
2023-01-18T13:50:41.850Z,3.64
2023-01-18T13:53:27.285Z,3.44
2023-01-18T13:56:30.955Z,3.50
2023-01-18T13:59:19.116Z,3.61
2023-01-18T14:01:54.724Z,3.68
2023-01-18T14:04:32.125Z,3.33
2023-01-18T14:07:04.547Z,3.25
2023-01-18T14:09:38.712Z,3.51
2023-01-18T14:12:09.875Z,3.65
2023-01-18T14:14:54.607Z,3.78
2023-01-18T14:17:26.462Z,3.83
2023-01-18T14:20:31.018Z,3.88
2023-01-18T14:23:25.147Z,3.93
2023-01-18T14:26:00.520Z,4.03
2023-01-18T14:28:36.655Z,4.10
2023-01-18T14:31:09.367Z,4.04
2023-01-18T14:33:42.380Z,3.98
2023-01-18T14:36:22.423Z,3.83
2023-01-18T14:39:13.323Z,3.81
2023-01-18T14:41:45.858Z,3.79
2023-01-18T14:44:22.088Z,3.65
2023-01-18T14:46:53.148Z,3.62
2023-01-18T14:49:31.337Z,3.54
2023-01-18T14:52:01.022Z,3.54
2023-01-18T14:54:30.895Z,3.59
2023-01-18T14:57:04.381Z,3.62
2023-01-18T14:59:33.504Z,3.56
2023-01-18T15:02:04.857Z,3.50
2023-01-18T15:04:39.315Z,3.50
2023-01-18T15:07:11.486Z,3.55
2023-01-18T15:09:44.847Z,3.43
2023-01-18T15:12:18.599Z,3.46
2023-01-18T15:14:51.676Z,3.53
2023-01-18T15:17:24.037Z,3.51
2023-01-18T15:19:57.224Z,3.56
2023-01-18T15:22:32.763Z,3.56
2023-01-18T15:25:02.584Z,3.59
2023-01-18T15:27:33.750Z,3.55
2023-01-18T15:30:04.290Z,3.49
2023-01-18T15:32:34.573Z,3.45
2023-01-18T15:35:07.557Z,3.40
2023-01-18T15:37:38.393Z,3.34
2023-01-18T15:40:26.812Z,3.28
2023-01-18T15:43:08.859Z,3.27
2023-01-18T15:45:39.836Z,3.27
2023-01-18T15:48:11.364Z,3.23
2023-01-18T15:50:50.566Z,3.22
2023-01-18T15:53:23.200Z,3.23
2023-01-18T15:55:55.113Z,3.30
2023-01-18T15:58:32.329Z,3.30
2023-01-18T16:01:04.439Z,3.26
2023-01-18T16:03:37.214Z,3.19
2023-01-18T16:06:17.185Z,3.12
2023-01-18T16:09:10.637Z,3.05
2023-01-18T16:11:50.355Z,3.00
2023-01-18T16:14:34.118Z,2.95
2023-01-18T16:17:08.441Z,2.93
2023-01-18T16:19:42.133Z,2.92
2023-01-18T16:22:22.433Z,2.90
2023-01-18T16:24:52.917Z,2.88
2023-01-18T16:27:24.074Z,2.82
2023-01-18T16:29:56.153Z,2.82
2023-01-18T16:32:34.539Z,2.77
2023-01-18T16:35:12.290Z,2.75
2023-01-18T16:37:47.578Z,2.66
2023-01-18T16:40:18.680Z,2.59
2023-01-18T16:43:01.870Z,2.55
2023-01-18T16:45:32.120Z,2.53
2023-01-18T16:48:01.102Z,2.49
2023-01-18T16:50:30.119Z,2.46
2023-01-18T16:53:00.373Z,2.42
2023-01-18T16:55:28.951Z,2.38
2023-01-18T16:57:57.805Z,2.36
2023-01-18T17:00:31.327Z,2.32
2023-01-18T17:02:59.997Z,2.31
2023-01-18T17:05:31.252Z,2.28
2023-01-18T17:08:02.319Z,2.28
2023-01-18T17:10:37.904Z,2.24
2023-01-18T17:13:06.416Z,2.22
2023-01-18T17:15:36.204Z,2.21
2023-01-18T17:18:05.644Z,2.20
2023-01-18T17:20:40.065Z,2.16
2023-01-18T17:23:11.304Z,2.14
2023-01-18T17:25:42.113Z,2.10
2023-01-18T17:28:14.614Z,2.07
2023-01-18T17:30:45.872Z,2.03
2023-01-18T17:33:18.651Z,1.98
2023-01-18T17:35:48.461Z,1.93
2023-01-18T17:38:26.310Z,1.87
2023-01-18T17:40:57.225Z,1.83
2023-01-18T17:43:33.941Z,1.86
2023-01-18T17:46:05.981Z,1.78
2023-01-18T17:48:35.935Z,1.73
2023-01-18T17:51:07.096Z,1.71
2023-01-18T17:53:39.583Z,1.71
2023-01-18T17:56:10.772Z,1.65
2023-01-18T17:58:40.116Z,1.61
2023-01-18T18:01:11.889Z,1.58
2023-01-18T18:03:41.013Z,1.55
2023-01-18T18:06:12.670Z,1.50
2023-01-18T18:08:43.054Z,1.44
2023-01-18T18:11:16.001Z,1.42
2023-01-18T18:13:44.949Z,1.35
2023-01-18T18:16:18.207Z,1.30
2023-01-18T18:18:47.408Z,1.27
2023-01-18T18:21:17.177Z,1.22
2023-01-18T18:23:48.274Z,1.20
2023-01-18T18:26:17.057Z,1.20
2023-01-18T18:28:45.763Z,1.16
2023-01-18T18:31:17.338Z,1.18
2023-01-18T18:33:46.081Z,1.21
2023-01-18T18:36:15.906Z,1.15
2023-01-18T18:38:45.475Z,1.12
2023-01-18T18:41:15.546Z,1.11
2023-01-18T18:43:45.641Z,1.12
2023-01-18T18:46:15.409Z,1.13
2023-01-18T18:48:44.279Z,1.14
2023-01-18T18:51:13.084Z,1.12
2023-01-18T18:53:41.714Z,1.11
2023-01-18T18:56:10.790Z,1.13
2023-01-18T18:58:41.953Z,1.12
2023-01-18T19:01:21.318Z,1.13
2023-01-18T19:03:51.110Z,1.12
2023-01-18T19:06:21.939Z,1.11
2023-01-18T19:08:51.144Z,1.08
2023-01-18T19:11:19.996Z,1.06
2023-01-18T19:13:49.906Z,1.01
2023-01-18T19:16:18.674Z,0.99
2023-01-18T19:18:48.144Z,0.95
2023-01-18T19:21:17.220Z,0.96
2023-01-18T19:23:46.426Z,0.93
2023-01-18T19:26:15.031Z,0.89
2023-01-18T19:28:44.851Z,0.90
2023-01-18T19:31:15.692Z,0.89
2023-01-18T19:33:46.071Z,0.89
2023-01-18T19:36:16.954Z,0.89
2023-01-18T19:38:52.712Z,0.89
2023-01-18T19:41:28.031Z,0.88
2023-01-18T19:43:56.658Z,0.88
2023-01-18T19:46:26.808Z,0.87
2023-01-18T19:48:59.678Z,0.85
2023-01-18T19:51:29.348Z,0.84
2023-01-18T19:53:59.908Z,0.83
2023-01-18T19:56:31.688Z,0.85
2023-01-18T19:59:00.120Z,0.84
2023-01-18T20:01:36.754Z,0.83
2023-01-18T20:04:06.861Z,0.77
2023-01-18T20:06:37.941Z,0.77
2023-01-18T20:09:18.594Z,0.74
2023-01-18T20:11:48.491Z,0.71
2023-01-18T20:14:18.786Z,0.68
2023-01-18T20:16:51.111Z,0.70
2023-01-18T20:19:19.931Z,0.67
2023-01-18T20:21:48.847Z,0.63
2023-01-18T20:24:19.265Z,0.58
2023-01-18T20:26:47.848Z,0.53
2023-01-18T20:29:16.504Z,0.48
2023-01-18T20:31:50.218Z,0.43
2023-01-18T20:34:20.843Z,0.35
2023-01-18T20:36:51.773Z,0.33
2023-01-18T20:39:20.577Z,0.31
2023-01-18T20:41:50.610Z,0.29
2023-01-18T20:44:19.272Z,0.27
2023-01-18T20:46:48.409Z,0.27
2023-01-18T20:49:24.531Z,0.25
2023-01-18T20:51:57.613Z,0.21
2023-01-18T20:54:26.482Z,0.17
2023-01-18T20:56:55.529Z,0.10
2023-01-18T20:59:24.401Z,0.06
2023-01-18T21:01:53.301Z,0.03
2023-01-18T21:04:22.020Z,0.04
2023-01-18T21:06:50.615Z,0.06
2023-01-18T21:09:20.767Z,0.03
2023-01-18T21:11:49.463Z,0.04
2023-01-18T21:14:17.840Z,0.06
2023-01-18T21:16:46.544Z,0.03
2023-01-18T21:19:15.179Z,-0.01
2023-01-18T21:21:44.885Z,-0.01
2023-01-18T21:24:14.782Z,-0.05
2023-01-18T21:26:48.941Z,-0.09
2023-01-18T21:29:17.649Z,-0.13
2023-01-18T21:31:48.501Z,-0.14
2023-01-18T21:34:16.905Z,-0.17
2023-01-18T21:36:49.466Z,-0.17
2023-01-18T21:39:25.346Z,-0.19
2023-01-18T21:42:13.944Z,-0.17
2023-01-18T21:45:00.161Z,-0.17
2023-01-18T21:47:28.577Z,-0.17
2023-01-18T21:50:18.291Z,-0.16
2023-01-18T21:53:11.913Z,-0.17
2023-01-18T21:55:41.737Z,-0.15
2023-01-18T21:58:29.005Z,-0.14
2023-01-18T22:01:00.717Z,-0.12
2023-01-18T22:03:29.485Z,-0.11
2023-01-18T22:06:02.473Z,-0.09
2023-01-18T22:08:31.163Z,-0.07
2023-01-18T22:11:02.780Z,-0.10
2023-01-18T22:13:34.284Z,-0.10
2023-01-18T22:16:06.775Z,-0.15
2023-01-18T22:18:35.102Z,-0.14
2023-01-18T22:21:03.489Z,-0.18
2023-01-18T22:23:32.180Z,-0.20
2023-01-18T22:26:00.735Z,-0.24
2023-01-18T22:28:29.663Z,-0.24
2023-01-18T22:31:01.303Z,-0.29
2023-01-18T22:33:30.556Z,-0.31
2023-01-18T22:35:59.758Z,-0.30
2023-01-18T22:38:28.971Z,-0.31
2023-01-18T22:41:04.035Z,-0.31
2023-01-18T22:43:33.066Z,-0.32
2023-01-18T22:46:04.133Z,-0.35
2023-01-18T22:48:34.845Z,-0.35
2023-01-18T22:51:03.893Z,-0.35
2023-01-18T22:53:33.802Z,-0.33
2023-01-18T22:56:07.860Z,-0.35
2023-01-18T22:58:37.222Z,-0.34
2023-01-18T23:01:17.179Z,-0.32
2023-01-18T23:03:48.548Z,-0.31
2023-01-18T23:06:17.896Z,-0.33
2023-01-18T23:08:47.368Z,-0.33
2023-01-18T23:11:18.948Z,-0.34
2023-01-18T23:14:06.309Z,-0.34
2023-01-18T23:16:55.245Z,-0.32
2023-01-18T23:19:25.326Z,-0.32
2023-01-18T23:21:54.822Z,-0.27
2023-01-18T23:24:25.645Z,-0.31
2023-01-18T23:26:54.153Z,-0.33
2023-01-18T23:29:22.813Z,-0.32
2023-01-18T23:31:53.169Z,-0.33
2023-01-18T23:34:21.741Z,-0.32
2023-01-18T23:36:51.223Z,-0.33
2023-01-18T23:39:37.465Z,-0.32
2023-01-18T23:42:23.584Z,-0.33
2023-01-18T23:45:09.298Z,-0.33
2023-01-18T23:47:58.277Z,-0.31
2023-01-18T23:50:45.126Z,-0.32
2023-01-18T23:53:33.626Z,-0.33
2023-01-18T23:56:04.317Z,-0.32
2023-01-18T23:58:34.269Z,-0.32
